Pagina principale
METAR-TAF:

METAR-TAF

Aeroporti :

Troyes, Francia

latitudine: 48-20N, longitudine: 004-01E, altezza: 118 m

Osservazione

Il bollettino è stato emesso 28 minuti fa, alle 18:00 UTC
Vento 4 kt da sud-est
Temperature 6°C
Umidità 93%
Pressione 1005 hPa
Visibilità 10 km o più
nessuna nube inferiore a 1500 m e nessun cumulonembo

METAR: LFQB 211800Z AUTO 14004KT CAVOK 06/05 Q1005

Ora: 19:28 (18:28 UTC)


TAF: mancante

Osservazioni e previsioni meteorologiche di più di 4000 aeroporti (messaggi METAR e TAF).

Le stazioni disponibili sono rappresentate dai dischi gialli e rossi sulla carta.

Puntare il mouse per vedere il nome della stazione.

Clicca sopra per visualizzare le osservazioni e previsioni meteorologiche.

Per cambiare la mappa : fare clic sui pulsanti verdi con una croce nera per ingrandire, il pulsante verde con un trattino per diminuire, o sulla freccia verde per le mappe adiacenti.


METAR-TAF: